sensor_id;sensor_type;location;lat;lon;timestamp;P1;durP1;ratioP1;P2;durP2;ratioP2
78875;SDS011;68253;52.506;5.486;2023-06-26T00:02:10;9.27;;;4.45;;
78875;SDS011;68253;52.506;5.486;2023-06-26T00:04:36;8.95;;;4.25;;
78875;SDS011;68253;52.506;5.486;2023-06-26T00:07:03;9.85;;;4.72;;
78875;SDS011;68253;52.506;5.486;2023-06-26T00:09:30;9.90;;;4.57;;
78875;SDS011;68253;52.506;5.486;2023-06-26T00:11:56;8.20;;;3.88;;
78875;SDS011;68253;52.506;5.486;2023-06-26T00:14:22;9.98;;;4.95;;
78875;SDS011;68253;52.506;5.486;2023-06-26T00:16:48;9.82;;;4.75;;
78875;SDS011;68253;52.506;5.486;2023-06-26T00:19:17;10.07;;;4.65;;
78875;SDS011;68253;52.506;5.486;2023-06-26T00:21:44;9.23;;;4.53;;
78875;SDS011;68253;52.506;5.486;2023-06-26T00:24:14;8.70;;;4.15;;
78875;SDS011;68253;52.506;5.486;2023-06-26T00:26:40;9.70;;;4.78;;
78875;SDS011;68253;52.506;5.486;2023-06-26T00:29:06;9.30;;;4.68;;
78875;SDS011;68253;52.506;5.486;2023-06-26T00:31:33;8.98;;;4.57;;
78875;SDS011;68253;52.506;5.486;2023-06-26T00:34:01;9.00;;;4.40;;
78875;SDS011;68253;52.506;5.486;2023-06-26T00:36:27;9.35;;;4.53;;
78875;SDS011;68253;52.506;5.486;2023-06-26T00:38:53;9.23;;;4.40;;
78875;SDS011;68253;52.506;5.486;2023-06-26T00:41:20;10.20;;;5.10;;
78875;SDS011;68253;52.506;5.486;2023-06-26T00:43:46;9.57;;;4.95;;
78875;SDS011;68253;52.506;5.486;2023-06-26T00:46:12;10.43;;;4.95;;
78875;SDS011;68253;52.506;5.486;2023-06-26T00:48:41;9.75;;;4.95;;
78875;SDS011;68253;52.506;5.486;2023-06-26T00:51:08;10.82;;;4.47;;
78875;SDS011;68253;52.506;5.486;2023-06-26T00:53:34;11.40;;;4.80;;
78875;SDS011;68253;52.506;5.486;2023-06-26T00:56:01;10.05;;;4.95;;
78875;SDS011;68253;52.506;5.486;2023-06-26T00:58:28;9.82;;;5.03;;
78875;SDS011;68253;52.506;5.486;2023-06-26T01:00:56;8.63;;;4.03;;
78875;SDS011;68253;52.506;5.486;2023-06-26T01:03:23;9.38;;;4.38;;
78875;SDS011;68253;52.506;5.486;2023-06-26T01:05:51;8.77;;;4.28;;
78875;SDS011;68253;52.506;5.486;2023-06-26T01:08:18;8.95;;;4.13;;
78875;SDS011;68253;52.506;5.486;2023-06-26T01:10:45;8.60;;;4.00;;
78875;SDS011;68253;52.506;5.486;2023-06-26T01:13:13;9.45;;;4.43;;
78875;SDS011;68253;52.506;5.486;2023-06-26T01:15:40;8.73;;;3.75;;
78875;SDS011;68253;52.506;5.486;2023-06-26T01:18:07;8.27;;;3.90;;
78875;SDS011;68253;52.506;5.486;2023-06-26T01:20:37;8.57;;;3.88;;
78875;SDS011;68253;52.506;5.486;2023-06-26T01:23:53;9.43;;;4.80;;
78875;SDS011;68253;52.506;5.486;2023-06-26T01:28:38;9.57;;;4.20;;
78875;SDS011;68253;52.506;5.486;2023-06-26T01:31:06;10.27;;;4.70;;
78875;SDS011;68253;52.506;5.486;2023-06-26T01:33:34;9.48;;;4.57;;
78875;SDS011;68253;52.506;5.486;2023-06-26T01:36:00;10.15;;;4.03;;
78875;SDS011;68253;52.506;5.486;2023-06-26T01:38:27;10.57;;;4.88;;
78875;SDS011;68253;52.506;5.486;2023-06-26T01:40:56;10.25;;;4.50;;
78875;SDS011;68253;52.506;5.486;2023-06-26T01:43:27;8.77;;;3.95;;
78875;SDS011;68253;52.506;5.486;2023-06-26T01:46:16;8.60;;;3.72;;
78875;SDS011;68253;52.506;5.486;2023-06-26T01:48:58;11.32;;;3.20;;
78875;SDS011;68253;52.506;5.486;2023-06-26T01:51:35;8.43;;;3.22;;
78875;SDS011;68253;52.506;5.486;2023-06-26T01:54:06;7.85;;;3.15;;
78875;SDS011;68253;52.506;5.486;2023-06-26T02:01:34;10.63;;;3.38;;
78875;SDS011;68253;52.506;5.486;2023-06-26T02:04:01;8.45;;;3.45;;
78875;SDS011;68253;52.506;5.486;2023-06-26T02:06:30;9.77;;;3.53;;
78875;SDS011;68253;52.506;5.486;2023-06-26T02:08:58;9.95;;;3.90;;
78875;SDS011;68253;52.506;5.486;2023-06-26T02:11:24;9.73;;;3.35;;
78875;SDS011;68253;52.506;5.486;2023-06-26T02:13:51;11.57;;;3.50;;
78875;SDS011;68253;52.506;5.486;2023-06-26T02:16:18;9.93;;;3.80;;
78875;SDS011;68253;52.506;5.486;2023-06-26T02:18:44;9.18;;;3.70;;
78875;SDS011;68253;52.506;5.486;2023-06-26T02:21:10;11.00;;;3.85;;
78875;SDS011;68253;52.506;5.486;2023-06-26T02:23:37;11.38;;;4.15;;
78875;SDS011;68253;52.506;5.486;2023-06-26T02:26:04;10.93;;;4.15;;
78875;SDS011;68253;52.506;5.486;2023-06-26T02:28:30;11.00;;;3.72;;
78875;SDS011;68253;52.506;5.486;2023-06-26T02:30:57;11.50;;;3.78;;
78875;SDS011;68253;52.506;5.486;2023-06-26T02:33:24;10.65;;;4.30;;
78875;SDS011;68253;52.506;5.486;2023-06-26T02:35:50;9.05;;;3.22;;
78875;SDS011;68253;52.506;5.486;2023-06-26T02:38:16;9.45;;;3.65;;
78875;SDS011;68253;52.506;5.486;2023-06-26T02:40:42;9.60;;;3.28;;
78875;SDS011;68253;52.506;5.486;2023-06-26T02:43:09;11.40;;;3.60;;
78875;SDS011;68253;52.506;5.486;2023-06-26T02:45:35;11.73;;;3.95;;
78875;SDS011;68253;52.506;5.486;2023-06-26T02:48:01;11.05;;;4.03;;
78875;SDS011;68253;52.506;5.486;2023-06-26T02:50:28;12.35;;;3.95;;
78875;SDS011;68253;52.506;5.486;2023-06-26T02:53:04;11.13;;;3.78;;
78875;SDS011;68253;52.506;5.486;2023-06-26T02:55:30;12.10;;;3.80;;
78875;SDS011;68253;52.506;5.486;2023-06-26T02:57:57;12.50;;;4.05;;
78875;SDS011;68253;52.506;5.486;2023-06-26T03:00:23;12.85;;;3.95;;
78875;SDS011;68253;52.506;5.486;2023-06-26T03:07:46;10.63;;;3.55;;
78875;SDS011;68253;52.506;5.486;2023-06-26T03:10:12;12.70;;;4.38;;
78875;SDS011;68253;52.506;5.486;2023-06-26T03:12:38;13.27;;;3.67;;
78875;SDS011;68253;52.506;5.486;2023-06-26T03:15:04;11.57;;;3.83;;
78875;SDS011;68253;52.506;5.486;2023-06-26T03:17:32;13.10;;;3.75;;
78875;SDS011;68253;52.506;5.486;2023-06-26T03:20:03;11.13;;;4.07;;
78875;SDS011;68253;52.506;5.486;2023-06-26T03:22:50;10.60;;;2.97;;
78875;SDS011;68253;52.506;5.486;2023-06-26T03:25:18;12.48;;;3.65;;
78875;SDS011;68253;52.506;5.486;2023-06-26T03:27:45;11.82;;;3.67;;
78875;SDS011;68253;52.506;5.486;2023-06-26T03:30:12;13.45;;;3.40;;
78875;SDS011;68253;52.506;5.486;2023-06-26T03:32:40;13.55;;;4.80;;
78875;SDS011;68253;52.506;5.486;2023-06-26T03:35:06;12.48;;;3.85;;
78875;SDS011;68253;52.506;5.486;2023-06-26T03:37:33;11.80;;;3.40;;
78875;SDS011;68253;52.506;5.486;2023-06-26T03:39:59;13.95;;;3.33;;
78875;SDS011;68253;52.506;5.486;2023-06-26T03:42:26;15.20;;;3.90;;
78875;SDS011;68253;52.506;5.486;2023-06-26T03:44:53;13.45;;;4.30;;
78875;SDS011;68253;52.506;5.486;2023-06-26T03:47:19;13.40;;;3.88;;
78875;SDS011;68253;52.506;5.486;2023-06-26T03:49:46;15.98;;;4.20;;
78875;SDS011;68253;52.506;5.486;2023-06-26T03:52:12;10.55;;;3.05;;
78875;SDS011;68253;52.506;5.486;2023-06-26T03:54:39;17.58;;;4.93;;
78875;SDS011;68253;52.506;5.486;2023-06-26T03:57:05;10.90;;;3.50;;
78875;SDS011;68253;52.506;5.486;2023-06-26T03:59:31;9.32;;;2.63;;
78875;SDS011;68253;52.506;5.486;2023-06-26T04:01:57;12.40;;;3.70;;
78875;SDS011;68253;52.506;5.486;2023-06-26T04:04:24;12.30;;;3.47;;
78875;SDS011;68253;52.506;5.486;2023-06-26T04:06:50;10.07;;;3.13;;
78875;SDS011;68253;52.506;5.486;2023-06-26T04:09:20;10.82;;;3.05;;
78875;SDS011;68253;52.506;5.486;2023-06-26T04:11:46;8.85;;;2.63;;
78875;SDS011;68253;52.506;5.486;2023-06-26T04:14:12;9.63;;;2.40;;
78875;SDS011;68253;52.506;5.486;2023-06-26T04:16:38;10.90;;;2.60;;
78875;SDS011;68253;52.506;5.486;2023-06-26T04:19:04;12.68;;;3.15;;
78875;SDS011;68253;52.506;5.486;2023-06-26T04:21:31;9.90;;;3.15;;
78875;SDS011;68253;52.506;5.486;2023-06-26T04:23:57;9.13;;;2.75;;
78875;SDS011;68253;52.506;5.486;2023-06-26T04:26:23;8.68;;;2.55;;
78875;SDS011;68253;52.506;5.486;2023-06-26T04:28:49;10.43;;;3.38;;
78875;SDS011;68253;52.506;5.486;2023-06-26T04:31:15;10.50;;;2.50;;
78875;SDS011;68253;52.506;5.486;2023-06-26T04:33:41;8.82;;;2.40;;
78875;SDS011;68253;52.506;5.486;2023-06-26T04:36:07;8.77;;;2.30;;
78875;SDS011;68253;52.506;5.486;2023-06-26T04:38:33;8.70;;;2.08;;
78875;SDS011;68253;52.506;5.486;2023-06-26T04:41:00;7.97;;;1.92;;
78875;SDS011;68253;52.506;5.486;2023-06-26T04:43:27;6.95;;;2.10;;
78875;SDS011;68253;52.506;5.486;2023-06-26T04:45:53;7.32;;;1.70;;
78875;SDS011;68253;52.506;5.486;2023-06-26T04:48:19;7.75;;;1.90;;
78875;SDS011;68253;52.506;5.486;2023-06-26T04:50:47;6.45;;;1.60;;
78875;SDS011;68253;52.506;5.486;2023-06-26T04:53:19;7.88;;;2.17;;
78875;SDS011;68253;52.506;5.486;2023-06-26T04:55:46;7.82;;;1.90;;
78875;SDS011;68253;52.506;5.486;2023-06-26T04:58:13;9.45;;;1.65;;
78875;SDS011;68253;52.506;5.486;2023-06-26T05:00:39;6.32;;;1.40;;
78875;SDS011;68253;52.506;5.486;2023-06-26T05:03:09;5.82;;;1.45;;
78875;SDS011;68253;52.506;5.486;2023-06-26T05:05:39;7.15;;;1.50;;
78875;SDS011;68253;52.506;5.486;2023-06-26T05:10:42;5.63;;;1.40;;
78875;SDS011;68253;52.506;5.486;2023-06-26T05:13:08;4.35;;;1.25;;
78875;SDS011;68253;52.506;5.486;2023-06-26T05:15:34;4.85;;;1.20;;
78875;SDS011;68253;52.506;5.486;2023-06-26T05:18:00;7.22;;;1.77;;
78875;SDS011;68253;52.506;5.486;2023-06-26T05:20:26;7.38;;;1.45;;
78875;SDS011;68253;52.506;5.486;2023-06-26T05:22:52;5.65;;;1.40;;
78875;SDS011;68253;52.506;5.486;2023-06-26T05:25:19;8.43;;;1.75;;
78875;SDS011;68253;52.506;5.486;2023-06-26T05:27:49;8.57;;;1.95;;
78875;SDS011;68253;52.506;5.486;2023-06-26T05:30:16;6.95;;;1.40;;
78875;SDS011;68253;52.506;5.486;2023-06-26T05:32:43;6.40;;;1.33;;
78875;SDS011;68253;52.506;5.486;2023-06-26T05:35:12;6.97;;;1.42;;
78875;SDS011;68253;52.506;5.486;2023-06-26T05:37:39;9.55;;;1.70;;
78875;SDS011;68253;52.506;5.486;2023-06-26T05:40:07;9.25;;;1.40;;
78875;SDS011;68253;52.506;5.486;2023-06-26T05:42:34;5.88;;;1.60;;
78875;SDS011;68253;52.506;5.486;2023-06-26T05:45:01;5.78;;;1.50;;
78875;SDS011;68253;52.506;5.486;2023-06-26T05:47:27;6.10;;;1.40;;
78875;SDS011;68253;52.506;5.486;2023-06-26T05:49:56;5.38;;;1.25;;
78875;SDS011;68253;52.506;5.486;2023-06-26T05:52:22;6.35;;;1.40;;
78875;SDS011;68253;52.506;5.486;2023-06-26T05:54:48;5.07;;;1.30;;
78875;SDS011;68253;52.506;5.486;2023-06-26T05:57:15;6.00;;;1.33;;
78875;SDS011;68253;52.506;5.486;2023-06-26T05:59:41;6.32;;;1.30;;
78875;SDS011;68253;52.506;5.486;2023-06-26T06:02:09;8.75;;;1.80;;
78875;SDS011;68253;52.506;5.486;2023-06-26T06:04:35;5.43;;;1.30;;
78875;SDS011;68253;52.506;5.486;2023-06-26T06:07:03;6.43;;;1.60;;
78875;SDS011;68253;52.506;5.486;2023-06-26T06:09:29;5.82;;;1.48;;
78875;SDS011;68253;52.506;5.486;2023-06-26T06:11:55;6.93;;;1.40;;
78875;SDS011;68253;52.506;5.486;2023-06-26T06:14:21;5.65;;;1.40;;
78875;SDS011;68253;52.506;5.486;2023-06-26T06:16:47;7.18;;;1.52;;
78875;SDS011;68253;52.506;5.486;2023-06-26T06:19:14;7.07;;;1.60;;
78875;SDS011;68253;52.506;5.486;2023-06-26T06:21:40;8.45;;;1.85;;
78875;SDS011;68253;52.506;5.486;2023-06-26T06:24:06;6.35;;;1.48;;
78875;SDS011;68253;52.506;5.486;2023-06-26T06:26:32;8.63;;;1.90;;
78875;SDS011;68253;52.506;5.486;2023-06-26T06:28:58;6.43;;;1.45;;
78875;SDS011;68253;52.506;5.486;2023-06-26T06:31:25;6.20;;;1.83;;
78875;SDS011;68253;52.506;5.486;2023-06-26T06:33:54;8.30;;;1.88;;
78875;SDS011;68253;52.506;5.486;2023-06-26T06:36:20;5.93;;;1.35;;
78875;SDS011;68253;52.506;5.486;2023-06-26T06:38:46;5.70;;;1.35;;
78875;SDS011;68253;52.506;5.486;2023-06-26T06:41:12;6.20;;;1.42;;
78875;SDS011;68253;52.506;5.486;2023-06-26T06:43:39;7.25;;;1.70;;
78875;SDS011;68253;52.506;5.486;2023-06-26T06:46:05;7.18;;;1.80;;
78875;SDS011;68253;52.506;5.486;2023-06-26T06:48:31;5.60;;;1.42;;
78875;SDS011;68253;52.506;5.486;2023-06-26T06:50:57;7.80;;;1.83;;
78875;SDS011;68253;52.506;5.486;2023-06-26T06:53:24;7.97;;;1.63;;
78875;SDS011;68253;52.506;5.486;2023-06-26T06:55:50;9.85;;;1.80;;
78875;SDS011;68253;52.506;5.486;2023-06-26T06:58:16;7.65;;;1.85;;
78875;SDS011;68253;52.506;5.486;2023-06-26T07:00:44;7.65;;;1.85;;
78875;SDS011;68253;52.506;5.486;2023-06-26T07:03:11;8.25;;;2.13;;
78875;SDS011;68253;52.506;5.486;2023-06-26T07:05:37;7.38;;;1.73;;
78875;SDS011;68253;52.506;5.486;2023-06-26T07:08:04;7.57;;;1.33;;
78875;SDS011;68253;52.506;5.486;2023-06-26T07:10:30;7.63;;;1.73;;
78875;SDS011;68253;52.506;5.486;2023-06-26T07:12:57;5.75;;;1.55;;
78875;SDS011;68253;52.506;5.486;2023-06-26T07:15:23;7.47;;;1.67;;
78875;SDS011;68253;52.506;5.486;2023-06-26T07:17:49;17.13;;;2.30;;
78875;SDS011;68253;52.506;5.486;2023-06-26T07:20:15;14.70;;;2.20;;
78875;SDS011;68253;52.506;5.486;2023-06-26T07:22:42;6.85;;;1.70;;
78875;SDS011;68253;52.506;5.486;2023-06-26T07:25:10;6.75;;;1.77;;
78875;SDS011;68253;52.506;5.486;2023-06-26T07:27:37;103.63;;;9.35;;
78875;SDS011;68253;52.506;5.486;2023-06-26T07:30:03;9.90;;;1.85;;
78875;SDS011;68253;52.506;5.486;2023-06-26T07:32:30;35.38;;;4.68;;
78875;SDS011;68253;52.506;5.486;2023-06-26T07:34:56;11.48;;;2.25;;
78875;SDS011;68253;52.506;5.486;2023-06-26T07:37:22;7.45;;;1.98;;
78875;SDS011;68253;52.506;5.486;2023-06-26T07:39:49;7.90;;;1.75;;
78875;SDS011;68253;52.506;5.486;2023-06-26T07:42:15;8.88;;;2.28;;
78875;SDS011;68253;52.506;5.486;2023-06-26T07:44:41;10.57;;;2.45;;
78875;SDS011;68253;52.506;5.486;2023-06-26T07:47:08;8.90;;;1.85;;
78875;SDS011;68253;52.506;5.486;2023-06-26T07:49:35;6.93;;;1.98;;
78875;SDS011;68253;52.506;5.486;2023-06-26T07:52:01;8.40;;;2.03;;
78875;SDS011;68253;52.506;5.486;2023-06-26T07:54:29;8.43;;;2.00;;
78875;SDS011;68253;52.506;5.486;2023-06-26T07:56:59;8.10;;;2.38;;
78875;SDS011;68253;52.506;5.486;2023-06-26T07:59:27;8.55;;;1.90;;
78875;SDS011;68253;52.506;5.486;2023-06-26T08:01:55;7.05;;;1.80;;
78875;SDS011;68253;52.506;5.486;2023-06-26T08:04:23;8.23;;;1.60;;
78875;SDS011;68253;52.506;5.486;2023-06-26T08:06:52;6.43;;;1.77;;
78875;SDS011;68253;52.506;5.486;2023-06-26T08:09:21;9.25;;;2.05;;
78875;SDS011;68253;52.506;5.486;2023-06-26T08:14:15;8.93;;;2.15;;
78875;SDS011;68253;52.506;5.486;2023-06-26T08:16:41;7.80;;;1.88;;
78875;SDS011;68253;52.506;5.486;2023-06-26T08:19:09;10.00;;;1.60;;
78875;SDS011;68253;52.506;5.486;2023-06-26T08:21:37;7.78;;;1.90;;
78875;SDS011;68253;52.506;5.486;2023-06-26T08:24:03;8.18;;;2.15;;
78875;SDS011;68253;52.506;5.486;2023-06-26T08:26:29;7.70;;;2.05;;
78875;SDS011;68253;52.506;5.486;2023-06-26T08:28:55;9.82;;;2.35;;
78875;SDS011;68253;52.506;5.486;2023-06-26T08:31:21;7.40;;;1.80;;
78875;SDS011;68253;52.506;5.486;2023-06-26T08:33:47;8.45;;;2.30;;
78875;SDS011;68253;52.506;5.486;2023-06-26T08:36:13;9.48;;;2.38;;
78875;SDS011;68253;52.506;5.486;2023-06-26T08:38:40;6.70;;;1.65;;
78875;SDS011;68253;52.506;5.486;2023-06-26T08:41:07;7.65;;;2.05;;
78875;SDS011;68253;52.506;5.486;2023-06-26T08:43:34;7.00;;;1.70;;
78875;SDS011;68253;52.506;5.486;2023-06-26T08:46:01;7.45;;;1.98;;
78875;SDS011;68253;52.506;5.486;2023-06-26T08:48:29;7.72;;;2.00;;
78875;SDS011;68253;52.506;5.486;2023-06-26T08:51:01;8.68;;;1.80;;
78875;SDS011;68253;52.506;5.486;2023-06-26T08:53:40;7.15;;;1.40;;
78875;SDS011;68253;52.506;5.486;2023-06-26T08:56:17;10.20;;;2.38;;
78875;SDS011;68253;52.506;5.486;2023-06-26T08:58:46;9.65;;;1.85;;
78875;SDS011;68253;52.506;5.486;2023-06-26T09:01:13;10.00;;;2.25;;
78875;SDS011;68253;52.506;5.486;2023-06-26T09:03:39;7.95;;;1.70;;
78875;SDS011;68253;52.506;5.486;2023-06-26T09:06:07;8.40;;;2.00;;
78875;SDS011;68253;52.506;5.486;2023-06-26T09:08:33;9.65;;;1.90;;
78875;SDS011;68253;52.506;5.486;2023-06-26T09:11:00;9.55;;;2.17;;
78875;SDS011;68253;52.506;5.486;2023-06-26T09:13:28;7.93;;;1.88;;
78875;SDS011;68253;52.506;5.486;2023-06-26T09:15:55;7.45;;;1.52;;
78875;SDS011;68253;52.506;5.486;2023-06-26T09:18:22;5.95;;;1.23;;
78875;SDS011;68253;52.506;5.486;2023-06-26T09:20:48;9.18;;;2.00;;
78875;SDS011;68253;52.506;5.486;2023-06-26T09:23:15;7.70;;;1.70;;
78875;SDS011;68253;52.506;5.486;2023-06-26T09:25:42;4.80;;;1.10;;
78875;SDS011;68253;52.506;5.486;2023-06-26T09:28:10;6.60;;;1.38;;
78875;SDS011;68253;52.506;5.486;2023-06-26T09:30:36;7.68;;;1.83;;
78875;SDS011;68253;52.506;5.486;2023-06-26T09:33:15;6.10;;;1.42;;
78875;SDS011;68253;52.506;5.486;2023-06-26T09:35:43;6.43;;;1.65;;
78875;SDS011;68253;52.506;5.486;2023-06-26T09:38:10;8.02;;;1.38;;
78875;SDS011;68253;52.506;5.486;2023-06-26T09:40:37;7.18;;;1.63;;
78875;SDS011;68253;52.506;5.486;2023-06-26T09:43:04;5.72;;;1.48;;
78875;SDS011;68253;52.506;5.486;2023-06-26T09:45:32;8.15;;;1.40;;
78875;SDS011;68253;52.506;5.486;2023-06-26T09:48:08;8.23;;;1.50;;
78875;SDS011;68253;52.506;5.486;2023-06-26T09:50:34;6.60;;;1.30;;
78875;SDS011;68253;52.506;5.486;2023-06-26T09:53:08;6.65;;;1.42;;
78875;SDS011;68253;52.506;5.486;2023-06-26T09:55:39;10.32;;;1.90;;
78875;SDS011;68253;52.506;5.486;2023-06-26T09:58:12;9.05;;;1.70;;
78875;SDS011;68253;52.506;5.486;2023-06-26T10:00:41;6.85;;;1.38;;
78875;SDS011;68253;52.506;5.486;2023-06-26T10:03:10;8.00;;;1.90;;
78875;SDS011;68253;52.506;5.486;2023-06-26T10:05:38;9.77;;;1.67;;
78875;SDS011;68253;52.506;5.486;2023-06-26T10:08:05;7.53;;;1.70;;
78875;SDS011;68253;52.506;5.486;2023-06-26T10:10:33;6.85;;;1.40;;
78875;SDS011;68253;52.506;5.486;2023-06-26T10:13:08;6.57;;;1.20;;
78875;SDS011;68253;52.506;5.486;2023-06-26T10:15:42;6.95;;;1.40;;
78875;SDS011;68253;52.506;5.486;2023-06-26T10:18:11;5.10;;;0.80;;
78875;SDS011;68253;52.506;5.486;2023-06-26T10:20:40;8.77;;;1.42;;
78875;SDS011;68253;52.506;5.486;2023-06-26T10:23:10;6.88;;;1.10;;
78875;SDS011;68253;52.506;5.486;2023-06-26T10:25:37;6.47;;;0.95;;
78875;SDS011;68253;52.506;5.486;2023-06-26T10:28:07;5.85;;;1.25;;
78875;SDS011;68253;52.506;5.486;2023-06-26T10:30:36;5.60;;;0.85;;
78875;SDS011;68253;52.506;5.486;2023-06-26T10:33:04;7.97;;;1.00;;
78875;SDS011;68253;52.506;5.486;2023-06-26T10:35:33;6.15;;;0.80;;
78875;SDS011;68253;52.506;5.486;2023-06-26T10:38:06;6.95;;;1.00;;
78875;SDS011;68253;52.506;5.486;2023-06-26T10:40:48;7.68;;;0.90;;
78875;SDS011;68253;52.506;5.486;2023-06-26T10:43:15;5.25;;;1.00;;
78875;SDS011;68253;52.506;5.486;2023-06-26T10:45:48;4.30;;;0.90;;
78875;SDS011;68253;52.506;5.486;2023-06-26T10:48:17;5.07;;;0.90;;
78875;SDS011;68253;52.506;5.486;2023-06-26T10:50:46;4.13;;;0.70;;
78875;SDS011;68253;52.506;5.486;2023-06-26T10:55:43;3.72;;;0.73;;
78875;SDS011;68253;52.506;5.486;2023-06-26T10:58:26;4.60;;;0.63;;
78875;SDS011;68253;52.506;5.486;2023-06-26T11:01:13;4.70;;;0.95;;
78875;SDS011;68253;52.506;5.486;2023-06-26T11:03:46;7.20;;;1.10;;
78875;SDS011;68253;52.506;5.486;2023-06-26T11:06:17;7.78;;;1.30;;
78875;SDS011;68253;52.506;5.486;2023-06-26T11:08:46;6.78;;;0.95;;
78875;SDS011;68253;52.506;5.486;2023-06-26T11:11:14;5.53;;;1.00;;
78875;SDS011;68253;52.506;5.486;2023-06-26T11:13:41;4.07;;;0.70;;
78875;SDS011;68253;52.506;5.486;2023-06-26T11:16:07;3.03;;;0.80;;
78875;SDS011;68253;52.506;5.486;2023-06-26T11:18:34;10.75;;;1.20;;
78875;SDS011;68253;52.506;5.486;2023-06-26T11:23:40;5.93;;;0.90;;
78875;SDS011;68253;52.506;5.486;2023-06-26T11:26:13;6.85;;;0.90;;
78875;SDS011;68253;52.506;5.486;2023-06-26T11:28:45;4.90;;;0.88;;
78875;SDS011;68253;52.506;5.486;2023-06-26T11:31:26;6.40;;;1.30;;
78875;SDS011;68253;52.506;5.486;2023-06-26T11:33:54;5.28;;;1.00;;
78875;SDS011;68253;52.506;5.486;2023-06-26T11:36:25;6.07;;;0.88;;
78875;SDS011;68253;52.506;5.486;2023-06-26T11:39:00;6.25;;;0.90;;
78875;SDS011;68253;52.506;5.486;2023-06-26T11:41:29;6.15;;;1.08;;
78875;SDS011;68253;52.506;5.486;2023-06-26T11:46:27;2.70;;;0.73;;
78875;SDS011;68253;52.506;5.486;2023-06-26T11:48:54;6.63;;;0.80;;
78875;SDS011;68253;52.506;5.486;2023-06-26T11:51:20;8.95;;;1.63;;
78875;SDS011;68253;52.506;5.486;2023-06-26T11:53:47;7.03;;;1.23;;
78875;SDS011;68253;52.506;5.486;2023-06-26T11:56:16;7.28;;;1.10;;
78875;SDS011;68253;52.506;5.486;2023-06-26T11:58:56;4.90;;;0.90;;
78875;SDS011;68253;52.506;5.486;2023-06-26T12:01:24;4.45;;;0.73;;
78875;SDS011;68253;52.506;5.486;2023-06-26T12:03:50;7.75;;;0.88;;
78875;SDS011;68253;52.506;5.486;2023-06-26T12:06:17;7.03;;;1.10;;
78875;SDS011;68253;52.506;5.486;2023-06-26T12:08:44;4.90;;;0.80;;
78875;SDS011;68253;52.506;5.486;2023-06-26T12:11:10;4.13;;;0.90;;
78875;SDS011;68253;52.506;5.486;2023-06-26T12:13:38;6.85;;;1.10;;
78875;SDS011;68253;52.506;5.486;2023-06-26T12:16:04;6.82;;;1.10;;
78875;SDS011;68253;52.506;5.486;2023-06-26T12:18:37;5.63;;;0.82;;
78875;SDS011;68253;52.506;5.486;2023-06-26T12:21:03;8.20;;;0.90;;
78875;SDS011;68253;52.506;5.486;2023-06-26T12:23:33;4.30;;;0.73;;
78875;SDS011;68253;52.506;5.486;2023-06-26T12:26:19;5.32;;;0.82;;
78875;SDS011;68253;52.506;5.486;2023-06-26T12:28:46;7.68;;;1.38;;
78875;SDS011;68253;52.506;5.486;2023-06-26T12:31:13;7.47;;;1.00;;
78875;SDS011;68253;52.506;5.486;2023-06-26T12:33:45;4.85;;;0.80;;
78875;SDS011;68253;52.506;5.486;2023-06-26T12:36:12;5.10;;;0.90;;
78875;SDS011;68253;52.506;5.486;2023-06-26T12:38:40;6.28;;;1.10;;
78875;SDS011;68253;52.506;5.486;2023-06-26T12:41:13;5.63;;;0.85;;
78875;SDS011;68253;52.506;5.486;2023-06-26T12:43:42;5.05;;;0.90;;
78875;SDS011;68253;52.506;5.486;2023-06-26T12:46:08;5.63;;;0.82;;
78875;SDS011;68253;52.506;5.486;2023-06-26T12:51:15;6.05;;;0.95;;
78875;SDS011;68253;52.506;5.486;2023-06-26T12:53:42;4.75;;;0.90;;
78875;SDS011;68253;52.506;5.486;2023-06-26T12:56:09;5.38;;;0.80;;
78875;SDS011;68253;52.506;5.486;2023-06-26T12:58:36;5.72;;;0.80;;
78875;SDS011;68253;52.506;5.486;2023-06-26T13:01:03;4.88;;;1.10;;
78875;SDS011;68253;52.506;5.486;2023-06-26T13:03:31;7.97;;;0.90;;
78875;SDS011;68253;52.506;5.486;2023-06-26T13:05:57;5.20;;;0.77;;
78875;SDS011;68253;52.506;5.486;2023-06-26T13:08:23;5.07;;;0.80;;
78875;SDS011;68253;52.506;5.486;2023-06-26T13:10:49;6.03;;;0.90;;
78875;SDS011;68253;52.506;5.486;2023-06-26T13:13:16;10.13;;;0.95;;
78875;SDS011;68253;52.506;5.486;2023-06-26T13:15:42;5.30;;;1.10;;
78875;SDS011;68253;52.506;5.486;2023-06-26T13:18:08;4.40;;;0.95;;
78875;SDS011;68253;52.506;5.486;2023-06-26T13:20:34;4.13;;;0.77;;
78875;SDS011;68253;52.506;5.486;2023-06-26T13:23:01;5.80;;;0.80;;
78875;SDS011;68253;52.506;5.486;2023-06-26T13:25:27;5.35;;;0.80;;
78875;SDS011;68253;52.506;5.486;2023-06-26T13:27:53;6.07;;;1.33;;
78875;SDS011;68253;52.506;5.486;2023-06-26T13:30:19;6.80;;;1.23;;
78875;SDS011;68253;52.506;5.486;2023-06-26T13:32:47;6.93;;;1.20;;
78875;SDS011;68253;52.506;5.486;2023-06-26T13:35:13;4.60;;;0.73;;
78875;SDS011;68253;52.506;5.486;2023-06-26T13:37:40;4.72;;;0.73;;
78875;SDS011;68253;52.506;5.486;2023-06-26T13:40:06;3.38;;;0.60;;
78875;SDS011;68253;52.506;5.486;2023-06-26T13:42:34;3.75;;;0.80;;
78875;SDS011;68253;52.506;5.486;2023-06-26T13:45:02;5.85;;;0.70;;
78875;SDS011;68253;52.506;5.486;2023-06-26T13:47:29;5.28;;;0.80;;
78875;SDS011;68253;52.506;5.486;2023-06-26T13:49:55;4.43;;;0.77;;
78875;SDS011;68253;52.506;5.486;2023-06-26T13:52:21;4.38;;;0.80;;
78875;SDS011;68253;52.506;5.486;2023-06-26T13:54:47;4.75;;;0.80;;
78875;SDS011;68253;52.506;5.486;2023-06-26T13:57:13;4.88;;;0.98;;
78875;SDS011;68253;52.506;5.486;2023-06-26T13:59:39;5.40;;;0.70;;
78875;SDS011;68253;52.506;5.486;2023-06-26T14:02:06;4.30;;;0.70;;
78875;SDS011;68253;52.506;5.486;2023-06-26T14:04:33;5.00;;;0.75;;
78875;SDS011;68253;52.506;5.486;2023-06-26T14:06:59;7.15;;;1.00;;
78875;SDS011;68253;52.506;5.486;2023-06-26T14:09:25;6.38;;;1.00;;
78875;SDS011;68253;52.506;5.486;2023-06-26T14:11:51;3.90;;;0.82;;
78875;SDS011;68253;52.506;5.486;2023-06-26T14:14:18;3.65;;;0.65;;
78875;SDS011;68253;52.506;5.486;2023-06-26T14:16:44;3.75;;;0.70;;
78875;SDS011;68253;52.506;5.486;2023-06-26T14:19:10;5.00;;;0.93;;
78875;SDS011;68253;52.506;5.486;2023-06-26T14:21:40;4.20;;;0.75;;
78875;SDS011;68253;52.506;5.486;2023-06-26T14:24:06;5.18;;;0.88;;
78875;SDS011;68253;52.506;5.486;2023-06-26T14:26:32;4.55;;;0.90;;
78875;SDS011;68253;52.506;5.486;2023-06-26T14:28:59;5.82;;;0.93;;
78875;SDS011;68253;52.506;5.486;2023-06-26T14:31:26;7.55;;;1.00;;
78875;SDS011;68253;52.506;5.486;2023-06-26T14:33:52;3.78;;;0.60;;
78875;SDS011;68253;52.506;5.486;2023-06-26T14:36:18;5.18;;;0.90;;
78875;SDS011;68253;52.506;5.486;2023-06-26T14:38:45;5.20;;;0.95;;
78875;SDS011;68253;52.506;5.486;2023-06-26T14:41:11;4.60;;;0.90;;
78875;SDS011;68253;52.506;5.486;2023-06-26T14:43:38;5.30;;;1.00;;
78875;SDS011;68253;52.506;5.486;2023-06-26T14:46:04;4.18;;;0.73;;
78875;SDS011;68253;52.506;5.486;2023-06-26T14:48:30;5.18;;;0.80;;
78875;SDS011;68253;52.506;5.486;2023-06-26T14:50:56;6.10;;;1.00;;
78875;SDS011;68253;52.506;5.486;2023-06-26T14:53:22;5.22;;;0.90;;
78875;SDS011;68253;52.506;5.486;2023-06-26T14:55:50;5.03;;;1.10;;
78875;SDS011;68253;52.506;5.486;2023-06-26T14:58:16;5.53;;;0.90;;
78875;SDS011;68253;52.506;5.486;2023-06-26T15:00:42;4.43;;;0.85;;
78875;SDS011;68253;52.506;5.486;2023-06-26T15:03:09;3.90;;;0.70;;
78875;SDS011;68253;52.506;5.486;2023-06-26T15:05:35;5.30;;;0.80;;
78875;SDS011;68253;52.506;5.486;2023-06-26T15:08:01;5.63;;;0.80;;
78875;SDS011;68253;52.506;5.486;2023-06-26T15:10:27;4.85;;;0.80;;
78875;SDS011;68253;52.506;5.486;2023-06-26T15:12:54;4.47;;;0.85;;
78875;SDS011;68253;52.506;5.486;2023-06-26T15:15:20;4.60;;;1.15;;
78875;SDS011;68253;52.506;5.486;2023-06-26T15:17:47;6.60;;;0.90;;